createdAt,value
2022-11-24T00:01:29.419Z,7.57
2022-11-24T00:04:05.522Z,7.72
2022-11-24T00:06:35.700Z,7.10
2022-11-24T00:09:04.399Z,7.88
2022-11-24T00:11:35.056Z,7.88
2022-11-24T00:14:03.249Z,6.80
2022-11-24T00:16:33.300Z,7.82
2022-11-24T00:19:03.190Z,6.85
2022-11-24T00:21:32.026Z,6.30
2022-11-24T00:23:59.741Z,6.10
2022-11-24T00:26:30.713Z,6.90
2022-11-24T00:29:01.063Z,7.43
2022-11-24T00:34:04.815Z,5.65
2022-11-24T00:36:34.738Z,6.70
2022-11-24T00:39:22.044Z,6.22
2022-11-24T00:41:49.377Z,6.45
2022-11-24T00:44:16.475Z,8.10
2022-11-24T00:46:43.796Z,6.35
2022-11-24T00:49:10.967Z,6.15
2022-11-24T00:51:39.072Z,7.43
2022-11-24T00:54:06.710Z,6.18
2022-11-24T00:56:34.894Z,7.50
2022-11-24T07:18:51.278Z,3.75
2022-11-24T07:21:19.894Z,4.18
2022-11-24T07:23:55.414Z,4.25
2022-11-24T07:26:23.291Z,4.13
2022-11-24T07:28:53.629Z,3.67
2022-11-24T07:31:25.131Z,4.10
2022-11-24T07:33:55.125Z,4.30
2022-11-24T07:36:32.666Z,3.88
2022-11-24T07:39:00.875Z,4.10
2022-11-24T07:41:29.070Z,3.65
2022-11-24T07:43:56.865Z,3.60
2022-11-24T07:46:23.954Z,3.97
2022-11-24T07:48:51.556Z,3.63
2022-11-24T07:51:18.622Z,3.15
2022-11-24T08:56:30.813Z,6.38
2022-11-24T08:59:00.808Z,6.07
2022-11-24T16:53:40.482Z,7.60
2022-11-24T16:56:08.430Z,10.70
